sensor_id;sensor_type;location;lat;lon;timestamp;temperature;humidity
67273;DHT22;54190;49.770;9.250;2023-03-23T00:01:09;13.00;99.90
67273;DHT22;54190;49.770;9.250;2023-03-23T00:03:36;13.00;99.90
67273;DHT22;54190;49.770;9.250;2023-03-23T00:06:02;13.00;99.90
67273;DHT22;54190;49.770;9.250;2023-03-23T00:08:31;12.90;99.90
67273;DHT22;54190;49.770;9.250;2023-03-23T00:10:57;13.00;99.90
67273;DHT22;54190;49.770;9.250;2023-03-23T00:13:27;12.90;99.90
67273;DHT22;54190;49.770;9.250;2023-03-23T00:15:53;12.90;99.90
67273;DHT22;54190;49.770;9.250;2023-03-23T00:18:20;12.90;99.90
67273;DHT22;54190;49.770;9.250;2023-03-23T00:20:55;13.00;99.90
67273;DHT22;54190;49.770;9.250;2023-03-23T00:23:24;12.90;99.90
67273;DHT22;54190;49.770;9.250;2023-03-23T00:25:55;12.90;99.90
67273;DHT22;54190;49.770;9.250;2023-03-23T00:28:25;12.90;99.90
67273;DHT22;54190;49.770;9.250;2023-03-23T00:31:10;12.90;99.90
67273;DHT22;54190;49.770;9.250;2023-03-23T00:33:37;12.90;99.90
67273;DHT22;54190;49.770;9.250;2023-03-23T00:36:10;12.90;99.90
67273;DHT22;54190;49.770;9.250;2023-03-23T00:38:36;12.90;99.90
67273;DHT22;54190;49.770;9.250;2023-03-23T00:41:03;12.90;99.90
67273;DHT22;54190;49.770;9.250;2023-03-23T00:43:30;12.90;99.90
67273;DHT22;54190;49.770;9.250;2023-03-23T00:45:57;12.80;99.90
67273;DHT22;54190;49.770;9.250;2023-03-23T00:48:27;12.80;99.90
67273;DHT22;54190;49.770;9.250;2023-03-23T00:50:53;12.80;99.90
67273;DHT22;54190;49.770;9.250;2023-03-23T00:53:20;12.70;99.90
67273;DHT22;54190;49.770;9.250;2023-03-23T00:55:47;12.70;99.90
67273;DHT22;54190;49.770;9.250;2023-03-23T00:58:13;12.60;99.90
67273;DHT22;54190;49.770;9.250;2023-03-23T01:00:40;12.60;99.90
67273;DHT22;54190;49.770;9.250;2023-03-23T01:03:08;12.60;99.90
67273;DHT22;54190;49.770;9.250;2023-03-23T01:05:38;12.60;99.90
67273;DHT22;54190;49.770;9.250;2023-03-23T01:08:04;12.50;99.90
67273;DHT22;54190;49.770;9.250;2023-03-23T01:10:31;12.50;99.90
67273;DHT22;54190;49.770;9.250;2023-03-23T01:13:04;12.50;99.90
67273;DHT22;54190;49.770;9.250;2023-03-23T01:15:30;12.60;99.90
67273;DHT22;54190;49.770;9.250;2023-03-23T01:17:57;12.60;99.90
67273;DHT22;54190;49.770;9.250;2023-03-23T01:20:23;12.60;99.90
67273;DHT22;54190;49.770;9.250;2023-03-23T01:22:50;12.50;99.90
67273;DHT22;54190;49.770;9.250;2023-03-23T01:25:16;12.50;99.90
67273;DHT22;54190;49.770;9.250;2023-03-23T01:27:42;12.50;99.90
67273;DHT22;54190;49.770;9.250;2023-03-23T01:30:10;12.50;99.90
67273;DHT22;54190;49.770;9.250;2023-03-23T01:32:37;12.50;99.90
67273;DHT22;54190;49.770;9.250;2023-03-23T01:35:03;12.50;99.90
67273;DHT22;54190;49.770;9.250;2023-03-23T01:37:30;12.50;99.90
67273;DHT22;54190;49.770;9.250;2023-03-23T01:39:57;12.50;99.90
67273;DHT22;54190;49.770;9.250;2023-03-23T01:42:34;12.50;99.90
67273;DHT22;54190;49.770;9.250;2023-03-23T01:50:24;12.50;99.90
67273;DHT22;54190;49.770;9.250;2023-03-23T01:52:52;12.50;99.90
67273;DHT22;54190;49.770;9.250;2023-03-23T01:55:19;12.50;99.90
67273;DHT22;54190;49.770;9.250;2023-03-23T01:57:45;12.50;99.90
67273;DHT22;54190;49.770;9.250;2023-03-23T02:00:14;12.50;99.90
67273;DHT22;54190;49.770;9.250;2023-03-23T02:02:47;12.50;99.90
67273;DHT22;54190;49.770;9.250;2023-03-23T02:05:24;12.50;99.90
67273;DHT22;54190;49.770;9.250;2023-03-23T02:07:53;12.50;99.90
67273;DHT22;54190;49.770;9.250;2023-03-23T02:10:19;12.50;99.90
67273;DHT22;54190;49.770;9.250;2023-03-23T02:12:45;12.50;99.90
67273;DHT22;54190;49.770;9.250;2023-03-23T02:15:12;12.50;99.90
67273;DHT22;54190;49.770;9.250;2023-03-23T02:31:43;12.60;99.90
67273;DHT22;54190;49.770;9.250;2023-03-23T02:34:34;12.50;99.90
67273;DHT22;54190;49.770;9.250;2023-03-23T02:37:06;12.60;99.90
67273;DHT22;54190;49.770;9.250;2023-03-23T02:39:41;12.60;99.90
67273;DHT22;54190;49.770;9.250;2023-03-23T02:42:10;12.60;99.90
67273;DHT22;54190;49.770;9.250;2023-03-23T02:44:40;12.50;99.90
67273;DHT22;54190;49.770;9.250;2023-03-23T02:47:11;12.50;99.90
67273;DHT22;54190;49.770;9.250;2023-03-23T02:49:40;12.50;99.90
67273;DHT22;54190;49.770;9.250;2023-03-23T02:52:14;12.50;99.90
67273;DHT22;54190;49.770;9.250;2023-03-23T02:54:43;12.50;99.90
67273;DHT22;54190;49.770;9.250;2023-03-23T02:57:10;12.50;99.90
67273;DHT22;54190;49.770;9.250;2023-03-23T02:59:40;12.60;99.90
67273;DHT22;54190;49.770;9.250;2023-03-23T03:02:11;12.60;99.90
67273;DHT22;54190;49.770;9.250;2023-03-23T03:04:40;12.50;99.90
67273;DHT22;54190;49.770;9.250;2023-03-23T03:07:34;12.50;99.90
67273;DHT22;54190;49.770;9.250;2023-03-23T03:13:19;12.40;99.90
67273;DHT22;54190;49.770;9.250;2023-03-23T03:15:56;12.30;99.90
67273;DHT22;54190;49.770;9.250;2023-03-23T03:18:29;12.30;99.90
67273;DHT22;54190;49.770;9.250;2023-03-23T03:21:07;12.30;99.90
67273;DHT22;54190;49.770;9.250;2023-03-23T03:23:37;12.30;99.90
67273;DHT22;54190;49.770;9.250;2023-03-23T03:26:04;12.40;99.90
67273;DHT22;54190;49.770;9.250;2023-03-23T03:28:44;12.40;99.90
67273;DHT22;54190;49.770;9.250;2023-03-23T03:31:15;12.40;99.90
67273;DHT22;54190;49.770;9.250;2023-03-23T03:33:43;12.40;99.90
67273;DHT22;54190;49.770;9.250;2023-03-23T03:36:15;12.40;99.90
67273;DHT22;54190;49.770;9.250;2023-03-23T03:38:43;12.40;99.90
67273;DHT22;54190;49.770;9.250;2023-03-23T03:41:09;12.40;99.90
67273;DHT22;54190;49.770;9.250;2023-03-23T03:43:35;12.40;99.90
67273;DHT22;54190;49.770;9.250;2023-03-23T03:46:02;12.40;99.90
67273;DHT22;54190;49.770;9.250;2023-03-23T03:48:28;12.40;99.90
67273;DHT22;54190;49.770;9.250;2023-03-23T03:50:53;12.40;99.90
67273;DHT22;54190;49.770;9.250;2023-03-23T03:53:26;12.50;99.90
67273;DHT22;54190;49.770;9.250;2023-03-23T03:55:51;12.50;99.90
67273;DHT22;54190;49.770;9.250;2023-03-23T03:58:21;12.50;99.90
67273;DHT22;54190;49.770;9.250;2023-03-23T04:01:07;12.50;99.90
67273;DHT22;54190;49.770;9.250;2023-03-23T04:03:37;12.50;99.90
67273;DHT22;54190;49.770;9.250;2023-03-23T04:06:05;12.50;99.90
67273;DHT22;54190;49.770;9.250;2023-03-23T04:08:33;12.50;99.90
67273;DHT22;54190;49.770;9.250;2023-03-23T04:10:58;12.50;99.90
67273;DHT22;54190;49.770;9.250;2023-03-23T04:13:25;12.50;99.90
67273;DHT22;54190;49.770;9.250;2023-03-23T04:16:03;12.50;99.90
67273;DHT22;54190;49.770;9.250;2023-03-23T04:18:32;12.50;99.90
67273;DHT22;54190;49.770;9.250;2023-03-23T04:20:58;12.50;99.90
67273;DHT22;54190;49.770;9.250;2023-03-23T04:23:27;12.50;99.90
67273;DHT22;54190;49.770;9.250;2023-03-23T04:25:53;12.50;99.90
67273;DHT22;54190;49.770;9.250;2023-03-23T04:28:24;12.50;99.90
67273;DHT22;54190;49.770;9.250;2023-03-23T04:31:25;12.50;99.90
67273;DHT22;54190;49.770;9.250;2023-03-23T04:33:56;12.50;99.90
67273;DHT22;54190;49.770;9.250;2023-03-23T04:36:25;12.50;99.90
67273;DHT22;54190;49.770;9.250;2023-03-23T04:38:59;12.50;99.90
67273;DHT22;54190;49.770;9.250;2023-03-23T04:41:26;12.60;99.90
67273;DHT22;54190;49.770;9.250;2023-03-23T04:44:07;12.60;99.90
67273;DHT22;54190;49.770;9.250;2023-03-23T04:46:39;12.60;99.90
67273;DHT22;54190;49.770;9.250;2023-03-23T04:49:08;12.70;99.90
67273;DHT22;54190;49.770;9.250;2023-03-23T04:51:37;12.70;99.90
67273;DHT22;54190;49.770;9.250;2023-03-23T04:54:16;12.70;99.90
67273;DHT22;54190;49.770;9.250;2023-03-23T04:56:47;12.70;99.90
67273;DHT22;54190;49.770;9.250;2023-03-23T04:59:14;12.70;99.90
67273;DHT22;54190;49.770;9.250;2023-03-23T05:01:58;12.60;99.90
67273;DHT22;54190;49.770;9.250;2023-03-23T05:04:25;12.60;99.90
67273;DHT22;54190;49.770;9.250;2023-03-23T05:07:03;12.60;99.90
67273;DHT22;54190;49.770;9.250;2023-03-23T05:09:32;12.60;99.90
67273;DHT22;54190;49.770;9.250;2023-03-23T05:11:58;12.60;99.90
67273;DHT22;54190;49.770;9.250;2023-03-23T05:14:28;12.50;99.90
67273;DHT22;54190;49.770;9.250;2023-03-23T05:17:03;12.50;99.90
67273;DHT22;54190;49.770;9.250;2023-03-23T05:19:29;12.50;99.90
67273;DHT22;54190;49.770;9.250;2023-03-23T05:21:57;12.40;99.90
67273;DHT22;54190;49.770;9.250;2023-03-23T05:24:30;12.40;99.90
67273;DHT22;54190;49.770;9.250;2023-03-23T05:26:59;12.30;99.90
67273;DHT22;54190;49.770;9.250;2023-03-23T05:29:31;12.30;99.90
67273;DHT22;54190;49.770;9.250;2023-03-23T05:31:59;12.30;99.90
67273;DHT22;54190;49.770;9.250;2023-03-23T05:34:26;12.30;99.90
67273;DHT22;54190;49.770;9.250;2023-03-23T05:36:56;12.30;99.90
67273;DHT22;54190;49.770;9.250;2023-03-23T05:39:32;12.30;99.90
67273;DHT22;54190;49.770;9.250;2023-03-23T05:42:16;12.30;99.90
67273;DHT22;54190;49.770;9.250;2023-03-23T05:44:49;12.40;99.90
67273;DHT22;54190;49.770;9.250;2023-03-23T05:47:16;12.30;99.90
67273;DHT22;54190;49.770;9.250;2023-03-23T05:49:48;12.30;99.90
67273;DHT22;54190;49.770;9.250;2023-03-23T05:52:16;12.40;99.90
67273;DHT22;54190;49.770;9.250;2023-03-23T05:54:42;12.40;99.90
67273;DHT22;54190;49.770;9.250;2023-03-23T05:57:08;12.40;99.90
67273;DHT22;54190;49.770;9.250;2023-03-23T05:59:47;12.40;99.90
67273;DHT22;54190;49.770;9.250;2023-03-23T06:02:20;12.40;99.90
67273;DHT22;54190;49.770;9.250;2023-03-23T06:04:46;12.40;99.90
67273;DHT22;54190;49.770;9.250;2023-03-23T06:07:20;12.50;99.90
67273;DHT22;54190;49.770;9.250;2023-03-23T06:09:54;12.50;99.90
67273;DHT22;54190;49.770;9.250;2023-03-23T06:12:22;12.50;99.90
67273;DHT22;54190;49.770;9.250;2023-03-23T06:14:58;12.50;99.90
67273;DHT22;54190;49.770;9.250;2023-03-23T06:17:37;12.50;99.90
67273;DHT22;54190;49.770;9.250;2023-03-23T06:20:05;12.50;99.90
67273;DHT22;54190;49.770;9.250;2023-03-23T06:22:37;12.50;99.90
67273;DHT22;54190;49.770;9.250;2023-03-23T06:25:09;12.50;99.90
67273;DHT22;54190;49.770;9.250;2023-03-23T06:27:40;12.40;99.90
67273;DHT22;54190;49.770;9.250;2023-03-23T06:30:07;12.40;99.90
67273;DHT22;54190;49.770;9.250;2023-03-23T06:32:33;12.40;99.90
67273;DHT22;54190;49.770;9.250;2023-03-23T06:35:00;12.40;99.90
67273;DHT22;54190;49.770;9.250;2023-03-23T06:37:51;12.40;99.90
67273;DHT22;54190;49.770;9.250;2023-03-23T06:40:27;12.50;99.90
67273;DHT22;54190;49.770;9.250;2023-03-23T06:42:56;12.40;99.90
67273;DHT22;54190;49.770;9.250;2023-03-23T06:45:34;12.50;99.90
67273;DHT22;54190;49.770;9.250;2023-03-23T06:48:23;12.50;99.90
67273;DHT22;54190;49.770;9.250;2023-03-23T06:50:49;12.50;99.90
67273;DHT22;54190;49.770;9.250;2023-03-23T06:53:17;12.50;99.90
67273;DHT22;54190;49.770;9.250;2023-03-23T06:55:44;12.50;99.90
67273;DHT22;54190;49.770;9.250;2023-03-23T06:58:10;12.50;99.90
67273;DHT22;54190;49.770;9.250;2023-03-23T07:00:36;12.50;99.90
67273;DHT22;54190;49.770;9.250;2023-03-23T07:03:03;12.60;99.90
67273;DHT22;54190;49.770;9.250;2023-03-23T07:05:29;12.60;99.90
67273;DHT22;54190;49.770;9.250;2023-03-23T07:07:55;12.60;99.90
67273;DHT22;54190;49.770;9.250;2023-03-23T07:10:44;12.60;99.90
67273;DHT22;54190;49.770;9.250;2023-03-23T07:13:10;12.60;99.90
67273;DHT22;54190;49.770;9.250;2023-03-23T07:15:46;12.60;99.90
67273;DHT22;54190;49.770;9.250;2023-03-23T07:18:12;12.60;99.90
67273;DHT22;54190;49.770;9.250;2023-03-23T07:20:42;12.50;99.90
67273;DHT22;54190;49.770;9.250;2023-03-23T07:23:08;12.50;99.90
67273;DHT22;54190;49.770;9.250;2023-03-23T07:25:42;12.50;99.90
67273;DHT22;54190;49.770;9.250;2023-03-23T07:28:12;12.60;99.90
67273;DHT22;54190;49.770;9.250;2023-03-23T07:30:38;12.60;99.90
67273;DHT22;54190;49.770;9.250;2023-03-23T07:33:08;12.50;99.90
67273;DHT22;54190;49.770;9.250;2023-03-23T07:35:35;12.60;99.90
67273;DHT22;54190;49.770;9.250;2023-03-23T07:38:04;12.50;99.90
67273;DHT22;54190;49.770;9.250;2023-03-23T07:40:32;12.50;99.90
67273;DHT22;54190;49.770;9.250;2023-03-23T07:43:03;12.50;99.90
67273;DHT22;54190;49.770;9.250;2023-03-23T07:45:59;12.50;99.90
67273;DHT22;54190;49.770;9.250;2023-03-23T07:48:32;12.50;99.90
67273;DHT22;54190;49.770;9.250;2023-03-23T07:50:59;12.50;99.90
67273;DHT22;54190;49.770;9.250;2023-03-23T07:53:26;12.50;99.90
67273;DHT22;54190;49.770;9.250;2023-03-23T07:56:13;12.50;99.90
67273;DHT22;54190;49.770;9.250;2023-03-23T07:59:06;12.50;99.90
67273;DHT22;54190;49.770;9.250;2023-03-23T08:01:33;12.40;99.90
67273;DHT22;54190;49.770;9.250;2023-03-23T08:04:19;12.50;99.90
67273;DHT22;54190;49.770;9.250;2023-03-23T08:07:11;12.50;99.90
67273;DHT22;54190;49.770;9.250;2023-03-23T08:09:52;12.40;99.90
67273;DHT22;54190;49.770;9.250;2023-03-23T08:12:37;12.40;99.90
67273;DHT22;54190;49.770;9.250;2023-03-23T08:15:21;12.40;99.90
67273;DHT22;54190;49.770;9.250;2023-03-23T08:17:50;12.40;99.90
67273;DHT22;54190;49.770;9.250;2023-03-23T08:20:35;12.40;99.90
67273;DHT22;54190;49.770;9.250;2023-03-23T08:23:12;12.40;99.90
67273;DHT22;54190;49.770;9.250;2023-03-23T08:25:47;12.40;99.90
67273;DHT22;54190;49.770;9.250;2023-03-23T08:28:24;12.40;99.90
67273;DHT22;54190;49.770;9.250;2023-03-23T08:31:12;12.40;99.90
67273;DHT22;54190;49.770;9.250;2023-03-23T08:33:50;12.40;99.90
67273;DHT22;54190;49.770;9.250;2023-03-23T08:36:38;12.40;99.90
67273;DHT22;54190;49.770;9.250;2023-03-23T08:39:24;12.30;99.90
67273;DHT22;54190;49.770;9.250;2023-03-23T08:41:53;12.30;99.90
67273;DHT22;54190;49.770;9.250;2023-03-23T08:44:39;12.30;99.90
67273;DHT22;54190;49.770;9.250;2023-03-23T08:47:25;12.30;99.90
67273;DHT22;54190;49.770;9.250;2023-03-23T08:50:19;12.30;99.90
67273;DHT22;54190;49.770;9.250;2023-03-23T08:53:02;12.30;99.90
67273;DHT22;54190;49.770;9.250;2023-03-23T08:55:39;12.40;99.90
67273;DHT22;54190;49.770;9.250;2023-03-23T08:58:35;12.40;99.90
67273;DHT22;54190;49.770;9.250;2023-03-23T09:01:08;12.50;99.90
67273;DHT22;54190;49.770;9.250;2023-03-23T09:03:42;12.50;99.90
67273;DHT22;54190;49.770;9.250;2023-03-23T09:06:30;12.50;99.90
67273;DHT22;54190;49.770;9.250;2023-03-23T09:08:56;12.50;99.90
67273;DHT22;54190;49.770;9.250;2023-03-23T09:11:22;12.50;99.90
67273;DHT22;54190;49.770;9.250;2023-03-23T09:13:47;12.50;99.90
67273;DHT22;54190;49.770;9.250;2023-03-23T09:16:13;12.50;99.90
67273;DHT22;54190;49.770;9.250;2023-03-23T09:18:39;12.50;99.90
67273;DHT22;54190;49.770;9.250;2023-03-23T09:21:05;12.50;99.90
67273;DHT22;54190;49.770;9.250;2023-03-23T09:23:32;12.50;99.90
67273;DHT22;54190;49.770;9.250;2023-03-23T09:26:00;12.60;99.90
67273;DHT22;54190;49.770;9.250;2023-03-23T09:28:26;12.60;99.90
67273;DHT22;54190;49.770;9.250;2023-03-23T09:30:54;12.60;99.90
67273;DHT22;54190;49.770;9.250;2023-03-23T09:33:23;12.60;99.90
67273;DHT22;54190;49.770;9.250;2023-03-23T09:35:49;12.60;99.90
67273;DHT22;54190;49.770;9.250;2023-03-23T09:38:15;12.60;99.90
67273;DHT22;54190;49.770;9.250;2023-03-23T09:40:49;12.60;99.90
67273;DHT22;54190;49.770;9.250;2023-03-23T09:43:36;12.70;99.90
67273;DHT22;54190;49.770;9.250;2023-03-23T09:46:29;12.60;99.90
67273;DHT22;54190;49.770;9.250;2023-03-23T09:49:21;12.60;99.90
67273;DHT22;54190;49.770;9.250;2023-03-23T09:51:54;12.60;99.90
67273;DHT22;54190;49.770;9.250;2023-03-23T09:54:26;12.60;99.90
67273;DHT22;54190;49.770;9.250;2023-03-23T09:56:53;12.60;99.90
67273;DHT22;54190;49.770;9.250;2023-03-23T09:59:40;12.60;99.90
67273;DHT22;54190;49.770;9.250;2023-03-23T10:02:29;12.60;99.90
67273;DHT22;54190;49.770;9.250;2023-03-23T10:05:06;12.60;99.90
67273;DHT22;54190;49.770;9.250;2023-03-23T10:07:37;12.60;99.90
67273;DHT22;54190;49.770;9.250;2023-03-23T10:10:04;12.60;99.90
67273;DHT22;54190;49.770;9.250;2023-03-23T10:12:55;12.70;99.90
67273;DHT22;54190;49.770;9.250;2023-03-23T10:15:34;12.70;99.90
67273;DHT22;54190;49.770;9.250;2023-03-23T10:18:10;12.80;99.90
67273;DHT22;54190;49.770;9.250;2023-03-23T10:20:56;12.80;99.90
67273;DHT22;54190;49.770;9.250;2023-03-23T10:23:34;12.80;99.90
67273;DHT22;54190;49.770;9.250;2023-03-23T10:26:29;12.90;99.90
67273;DHT22;54190;49.770;9.250;2023-03-23T10:29:08;12.90;99.90
67273;DHT22;54190;49.770;9.250;2023-03-23T10:31:43;13.00;99.90
67273;DHT22;54190;49.770;9.250;2023-03-23T10:34:55;13.00;99.90
67273;DHT22;54190;49.770;9.250;2023-03-23T10:37:25;13.00;99.90
67273;DHT22;54190;49.770;9.250;2023-03-23T10:39:54;13.00;99.90
67273;DHT22;54190;49.770;9.250;2023-03-23T10:42:32;13.10;99.90
67273;DHT22;54190;49.770;9.250;2023-03-23T10:45:28;13.00;99.90
67273;DHT22;54190;49.770;9.250;2023-03-23T10:48:19;13.00;99.90
67273;DHT22;54190;49.770;9.250;2023-03-23T10:50:51;13.10;99.90
67273;DHT22;54190;49.770;9.250;2023-03-23T10:53:33;13.10;99.90
67273;DHT22;54190;49.770;9.250;2023-03-23T10:56:00;13.10;99.90
67273;DHT22;54190;49.770;9.250;2023-03-23T10:58:29;13.10;99.90
67273;DHT22;54190;49.770;9.250;2023-03-23T11:00:56;13.10;99.90
67273;DHT22;54190;49.770;9.250;2023-03-23T11:03:26;13.10;99.90
67273;DHT22;54190;49.770;9.250;2023-03-23T11:05:58;13.10;99.90
67273;DHT22;54190;49.770;9.250;2023-03-23T11:08:29;13.10;99.90
67273;DHT22;54190;49.770;9.250;2023-03-23T11:11:06;13.10;99.90
67273;DHT22;54190;49.770;9.250;2023-03-23T11:13:32;13.00;99.90
67273;DHT22;54190;49.770;9.250;2023-03-23T11:15:59;13.00;99.90
67273;DHT22;54190;49.770;9.250;2023-03-23T11:18:42;13.00;99.90
67273;DHT22;54190;49.770;9.250;2023-03-23T11:21:12;13.00;99.90
67273;DHT22;54190;49.770;9.250;2023-03-23T11:23:42;13.00;99.90
67273;DHT22;54190;49.770;9.250;2023-03-23T11:29:30;12.90;99.90
67273;DHT22;54190;49.770;9.250;2023-03-23T11:31:45;12.90;99.90
67273;DHT22;54190;49.770;9.250;2023-03-23T11:37:18;12.90;99.90
67273;DHT22;54190;49.770;9.250;2023-03-23T11:39:56;13.00;99.90
67273;DHT22;54190;49.770;9.250;2023-03-23T11:42:45;13.00;99.90
67273;DHT22;54190;49.770;9.250;2023-03-23T11:48:18;13.10;99.90
67273;DHT22;54190;49.770;9.250;2023-03-23T11:56:19;13.20;99.90
67273;DHT22;54190;49.770;9.250;2023-03-23T11:58:48;13.30;99.90
67273;DHT22;54190;49.770;9.250;2023-03-23T12:14:50;13.40;99.90
67273;DHT22;54190;49.770;9.250;2023-03-23T12:17:46;13.40;99.90
67273;DHT22;54190;49.770;9.250;2023-03-23T12:20:25;13.40;99.90
67273;DHT22;54190;49.770;9.250;2023-03-23T12:25:50;13.60;99.90
67273;DHT22;54190;49.770;9.250;2023-03-23T12:28:52;13.60;99.90
67273;DHT22;54190;49.770;9.250;2023-03-23T12:50:25;13.90;99.90
67273;DHT22;54190;49.770;9.250;2023-03-23T12:52:59;13.90;99.90
67273;DHT22;54190;49.770;9.250;2023-03-23T12:58:40;14.10;99.90
67273;DHT22;54190;49.770;9.250;2023-03-23T13:01:45;14.10;99.90
67273;DHT22;54190;49.770;9.250;2023-03-23T13:04:12;14.20;99.90
67273;DHT22;54190;49.770;9.250;2023-03-23T13:06:44;14.30;99.90
67273;DHT22;54190;49.770;9.250;2023-03-23T13:11:59;14.40;99.90
67273;DHT22;54190;49.770;9.250;2023-03-23T13:14:55;14.40;99.90
67273;DHT22;54190;49.770;9.250;2023-03-23T13:23:11;14.50;99.90
67273;DHT22;54190;49.770;9.250;2023-03-23T13:25:49;14.50;99.90
67273;DHT22;54190;49.770;9.250;2023-03-23T13:28:21;14.50;99.90
67273;DHT22;54190;49.770;9.250;2023-03-23T13:31:15;14.40;99.90
67273;DHT22;54190;49.770;9.250;2023-03-23T13:33:50;14.40;99.90
67273;DHT22;54190;49.770;9.250;2023-03-23T13:36:27;14.40;99.90
67273;DHT22;54190;49.770;9.250;2023-03-23T13:38:53;14.30;99.90
67273;DHT22;54190;49.770;9.250;2023-03-23T13:41:20;14.20;99.90
67273;DHT22;54190;49.770;9.250;2023-03-23T13:43:47;14.20;99.90
67273;DHT22;54190;49.770;9.250;2023-03-23T13:48:47;14.10;99.90
67273;DHT22;54190;49.770;9.250;2023-03-23T13:59:34;14.10;99.90
67273;DHT22;54190;49.770;9.250;2023-03-23T14:02:31;14.00;99.90
67273;DHT22;54190;49.770;9.250;2023-03-23T14:05:11;14.00;99.90
67273;DHT22;54190;49.770;9.250;2023-03-23T14:08:00;14.00;99.90
67273;DHT22;54190;49.770;9.250;2023-03-23T14:10:36;14.00;99.90
67273;DHT22;54190;49.770;9.250;2023-03-23T14:13:04;14.00;99.90
67273;DHT22;54190;49.770;9.250;2023-03-23T14:15:41;14.00;99.90
67273;DHT22;54190;49.770;9.250;2023-03-23T14:18:14;14.00;99.90
67273;DHT22;54190;49.770;9.250;2023-03-23T14:20:41;14.00;99.90
67273;DHT22;54190;49.770;9.250;2023-03-23T14:23:18;14.00;99.90
67273;DHT22;54190;49.770;9.250;2023-03-23T14:25:54;14.00;99.90
67273;DHT22;54190;49.770;9.250;2023-03-23T14:28:21;14.00;99.90
67273;DHT22;54190;49.770;9.250;2023-03-23T14:30:52;14.00;99.90
67273;DHT22;54190;49.770;9.250;2023-03-23T14:33:20;14.00;99.90
67273;DHT22;54190;49.770;9.250;2023-03-23T14:35:46;13.90;99.90
67273;DHT22;54190;49.770;9.250;2023-03-23T14:38:18;13.90;99.90
67273;DHT22;54190;49.770;9.250;2023-03-23T14:40:44;13.90;99.90
67273;DHT22;54190;49.770;9.250;2023-03-23T14:43:14;13.80;99.90
67273;DHT22;54190;49.770;9.250;2023-03-23T14:45:43;13.80;99.90
67273;DHT22;54190;49.770;9.250;2023-03-23T14:48:13;13.80;99.90
67273;DHT22;54190;49.770;9.250;2023-03-23T14:50:42;13.80;99.90
67273;DHT22;54190;49.770;9.250;2023-03-23T14:53:33;13.80;99.90
67273;DHT22;54190;49.770;9.250;2023-03-23T14:56:03;13.70;99.90
67273;DHT22;54190;49.770;9.250;2023-03-23T14:58:30;13.70;99.90
67273;DHT22;54190;49.770;9.250;2023-03-23T15:03:22;13.70;99.90
67273;DHT22;54190;49.770;9.250;2023-03-23T15:05:57;13.70;99.90
67273;DHT22;54190;49.770;9.250;2023-03-23T15:08:29;13.60;99.90
67273;DHT22;54190;49.770;9.250;2023-03-23T15:13:55;13.60;99.90
67273;DHT22;54190;49.770;9.250;2023-03-23T15:16:25;13.50;99.90
67273;DHT22;54190;49.770;9.250;2023-03-23T15:19:18;13.60;99.90
67273;DHT22;54190;49.770;9.250;2023-03-23T15:21:54;13.50;99.90
67273;DHT22;54190;49.770;9.250;2023-03-23T15:24:33;13.50;99.90
67273;DHT22;54190;49.770;9.250;2023-03-23T15:27:15;13.50;99.90
67273;DHT22;54190;49.770;9.250;2023-03-23T15:30:12;13.40;99.90
67273;DHT22;54190;49.770;9.250;2023-03-23T15:32:41;13.50;99.90
67273;DHT22;54190;49.770;9.250;2023-03-23T15:35:24;13.40;99.90
67273;DHT22;54190;49.770;9.250;2023-03-23T15:38:00;13.40;99.90
67273;DHT22;54190;49.770;9.250;2023-03-23T15:40:31;13.40;99.90
67273;DHT22;54190;49.770;9.250;2023-03-23T15:45:34;13.30;99.90
67273;DHT22;54190;49.770;9.250;2023-03-23T15:48:12;13.30;99.90
67273;DHT22;54190;49.770;9.250;2023-03-23T15:50:40;13.30;99.90
67273;DHT22;54190;49.770;9.250;2023-03-23T15:55:45;13.30;99.90
67273;DHT22;54190;49.770;9.250;2023-03-23T15:58:12;13.20;99.90
67273;DHT22;54190;49.770;9.250;2023-03-23T16:00:39;13.30;99.90
67273;DHT22;54190;49.770;9.250;2023-03-23T16:03:11;13.30;99.90
67273;DHT22;54190;49.770;9.250;2023-03-23T16:05:37;13.30;99.90
67273;DHT22;54190;49.770;9.250;2023-03-23T16:08:03;13.20;99.90
67273;DHT22;54190;49.770;9.250;2023-03-23T16:10:29;13.20;99.90
67273;DHT22;54190;49.770;9.250;2023-03-23T16:12:55;13.20;99.90
67273;DHT22;54190;49.770;9.250;2023-03-23T16:15:21;13.20;99.90
67273;DHT22;54190;49.770;9.250;2023-03-23T16:17:47;13.10;99.90
67273;DHT22;54190;49.770;9.250;2023-03-23T16:20:21;13.10;99.90
67273;DHT22;54190;49.770;9.250;2023-03-23T16:22:48;13.10;99.90
67273;DHT22;54190;49.770;9.250;2023-03-23T16:25:15;13.00;99.90
67273;DHT22;54190;49.770;9.250;2023-03-23T16:27:42;13.00;99.90
67273;DHT22;54190;49.770;9.250;2023-03-23T16:30:17;13.00;99.90
67273;DHT22;54190;49.770;9.250;2023-03-23T16:32:43;13.00;99.90
67273;DHT22;54190;49.770;9.250;2023-03-23T16:35:09;13.00;99.90
67273;DHT22;54190;49.770;9.250;2023-03-23T16:37:36;12.90;99.90
67273;DHT22;54190;49.770;9.250;2023-03-23T16:40:04;12.90;99.90
67273;DHT22;54190;49.770;9.250;2023-03-23T16:42:30;12.90;99.90
67273;DHT22;54190;49.770;9.250;2023-03-23T16:44:56;12.80;99.90
67273;DHT22;54190;49.770;9.250;2023-03-23T16:47:22;12.90;99.90
67273;DHT22;54190;49.770;9.250;2023-03-23T16:49:50;12.80;99.90
67273;DHT22;54190;49.770;9.250;2023-03-23T16:52:17;12.80;99.90
67273;DHT22;54190;49.770;9.250;2023-03-23T16:54:43;12.80;99.90
67273;DHT22;54190;49.770;9.250;2023-03-23T16:57:09;12.80;99.90
67273;DHT22;54190;49.770;9.250;2023-03-23T16:59:35;12.80;99.90
67273;DHT22;54190;49.770;9.250;2023-03-23T17:02:01;12.90;99.90
67273;DHT22;54190;49.770;9.250;2023-03-23T17:04:29;12.90;99.90
67273;DHT22;54190;49.770;9.250;2023-03-23T17:06:56;12.80;99.90
67273;DHT22;54190;49.770;9.250;2023-03-23T17:09:26;12.80;99.90
67273;DHT22;54190;49.770;9.250;2023-03-23T17:11:52;12.90;99.90
67273;DHT22;54190;49.770;9.250;2023-03-23T17:14:19;12.80;99.90
67273;DHT22;54190;49.770;9.250;2023-03-23T17:16:45;12.80;99.90
67273;DHT22;54190;49.770;9.250;2023-03-23T17:19:12;12.80;99.90
67273;DHT22;54190;49.770;9.250;2023-03-23T17:21:39;12.90;99.90
67273;DHT22;54190;49.770;9.250;2023-03-23T17:24:06;12.80;99.90
67273;DHT22;54190;49.770;9.250;2023-03-23T17:26:32;12.80;99.90
67273;DHT22;54190;49.770;9.250;2023-03-23T17:28:58;12.80;99.90
67273;DHT22;54190;49.770;9.250;2023-03-23T17:31:23;12.80;99.90
67273;DHT22;54190;49.770;9.250;2023-03-23T17:33:50;12.80;99.90
67273;DHT22;54190;49.770;9.250;2023-03-23T17:36:16;12.80;99.90
67273;DHT22;54190;49.770;9.250;2023-03-23T17:38:42;12.70;99.90
67273;DHT22;54190;49.770;9.250;2023-03-23T17:41:08;12.70;99.90
67273;DHT22;54190;49.770;9.250;2023-03-23T17:43:37;12.70;99.90
67273;DHT22;54190;49.770;9.250;2023-03-23T17:46:06;12.70;99.90
67273;DHT22;54190;49.770;9.250;2023-03-23T17:48:32;12.80;99.90